John H. — WAC6768 — position and weather

sailwx.info

Track history (hours):
 
Tides and Currents Weather Stations Pressure Air Temp Water Temp Dewpoint Dewpoint Depression Visibility Wind Speed Wind Dir Waves Ship Positions

John H.

Owner: CROSS SOUND FERRY SERVICE INC, NEW LOUDON, CT. More information available from US FCC via Universal Licensing System and Coast Guard Vessel Documentation Center.

Last reported at 2015-Jul-02 11:33 UTC. Time now 2015-Jul-02 12:28 UTC.
Position N 41°14' W 072°09'.

Length 70 m.

Type: Passenger vessel. MMSI: 366934890.

Date/timePositionNaut miles runAvg speedWind from/ knotsBaromVisibWave heightAir tempDewpointWater temp
2015-Jul-02 11:33N 41°14' W 072°09'6 5.8
2015-Jul-02 10:33N 41°09' W 072°14'0 0.0
2015-Jul-02 00:33N 41°09' W 072°14'1010.3
2015-Jul-01 23:33N 41°17' W 072°06'4 4.1
2015-Jul-01 22:33N 41°21' W 072°06'9 9.0
2015-Jul-01 21:33N 41°13' W 072°10'5 5.0
2015-Jul-01 20:33N 41°09' W 072°14'9 8.9
2015-Jul-01 19:34N 41°16' W 072°07'5 5.2
2015-Jul-01 18:33N 41°21' W 072°06'9 9.0
2015-Jul-01 17:33N 41°13' W 072°10'5 5.0
2015-Jul-01 16:33N 41°09' W 072°14'1110.5
2015-Jul-01 15:33N 41°17' W 072°05'4 4.1
2015-Jul-01 14:33N 41°21' W 072°06'9 9.5
2015-Jul-01 13:33N 41°13' W 072°11'4 4.4
2015-Jul-01 12:33N 41°09' W 072°14'9 9.2
2015-Jul-01 11:33N 41°17' W 072°07'5 4.8
2015-Jul-01 10:32N 41°21' W 072°06'0 0.0
2015-Jul-01 00:32N 41°21' W 072°06'9 9.6
2015-Jun-30 23:33N 41°13' W 072°11'5 4.6
2015-Jun-30 22:33N 41°09' W 072°14'9 9.4
2015-Jun-30 21:34N 41°17' W 072°07'5 4.8
2015-Jun-30 20:33N 41°21' W 072°06'9 8.5
2015-Jun-30 19:34N 41°14' W 072°10'5 5.4
2015-Jun-30 18:33N 41°09' W 072°14'9 8.7
2015-Jun-30 17:33N 41°16' W 072°07'5 5.4
2015-Jun-30 16:33N 41°21' W 072°06'12 9.7
2015-Jun-30 15:21N 41°11' W 072°13'2 2.7
2015-Jun-30 14:33N 41°09' W 072°14'8 7.8
2015-Jun-30 13:33N 41°16' W 072°08'6 6.2
2015-Jun-30 12:33N 41°21' W 072°06'1010.3
2015-Jun-30 11:34N 41°12' W 072°12'4 3.5
2015-Jun-30 10:33N 41°09' W 072°14'0 0.0
2015-Jun-30 00:33N 41°09' W 072°14'9 9.4
2015-Jun-29 23:34N 41°16' W 072°07'5 4.9
2015-Jun-29 22:33N 41°21' W 072°06'9 9.1
2015-Jun-29 21:33N 41°13' W 072°10'5 4.8
2015-Jun-29 20:33N 41°09' W 072°14'9 8.5
2015-Jun-29 19:33N 41°16' W 072°08'6 5.5
2015-Jun-29 18:33N 41°21' W 072°06'1010.1
2015-Jun-29 17:34N 41°12' W 072°11'4 3.8
2015-Jun-29 16:33N 41°09' W 072°14'10 9.6
2015-Jun-29 15:33N 41°17' W 072°06'5 4.7
2015-Jun-29 14:33N 41°21' W 072°06'10 9.5
2015-Jun-29 13:34N 41°13' W 072°11'4 4.4
2015-Jun-29 12:33N 41°09' W 072°14'10 9.6
2015-Jun-29 11:33N 41°17' W 072°06'5 4.8
2015-Jun-29 10:33N 41°21' W 072°06'0 0.0
2015-Jun-29 02:25N 41°21' W 072°06'8 9.7
2015-Jun-29 01:33N 41°14' W 072°09'6 5.7
2015-Jun-29 00:33N 41°09' W 072°14'9 9.4
2015-Jun-28 23:33N 41°17' W 072°06'5 4.9
2015-Jun-28 22:33N 41°21' W 072°06'9 9.4
2015-Jun-28 21:33N 41°13' W 072°11'5 4.6
2015-Jun-28 20:33N 41°09' W 072°14'9 9.0
2015-Jun-28 19:33N 41°16' W 072°07'5 5.2
2015-Jun-28 18:33N 41°21' W 072°06'9 9.5
2015-Jun-28 17:34N 41°13' W 072°11'4 4.4
2015-Jun-28 16:33N 41°09' W 072°14'9 8.6
2015-Jun-28 15:34N 41°16' W 072°07'6 5.5
2015-Jun-28 14:33N 41°21' W 072°06'8 8.3
2015-Jun-28 13:34N 41°14' W 072°09'6 5.7
2015-Jun-28 12:33N 41°09' W 072°14'9 9.0
2015-Jun-28 11:33N 41°16' W 072°06'5 5.4
2015-Jun-28 10:33N 41°21' W 072°06'0 0.0
2015-Jun-28 00:23N 41°21' W 072°06'810.0
2015-Jun-27 23:33N 41°14' W 072°10'6 5.6
2015-Jun-27 22:33N 41°09' W 072°14'8 8.5
2015-Jun-27 21:34N 41°16' W 072°08'6 5.5
2015-Jun-27 20:34N 41°21' W 072°06'8 8.4
2015-Jun-27 19:33N 41°14' W 072°10'6 5.5
2015-Jun-27 18:33N 41°09' W 072°14'9 9.2
2015-Jun-27 17:33N 41°16' W 072°07'5 5.0
2015-Jun-27 16:33N 41°21' W 072°06'9 8.6
2015-Jun-27 15:33N 41°13' W 072°09'6 5.5
2015-Jun-27 14:33N 41°09' W 072°14'8 8.2
2015-Jun-27 13:33N 41°16' W 072°08'6 5.9
2015-Jun-27 12:34N 41°21' W 072°06'8 8.4
2015-Jun-27 11:33N 41°14' W 072°10'6 5.6
2015-Jun-27 10:33N 41°09' W 072°14'0 0.0
2015-Jun-27 02:23N 41°09' W 072°14'6 6.8
2015-Jun-27 01:34N 41°14' W 072°10'8 8.3
2015-Jun-27 00:34N 41°21' W 072°06'8 8.1
2015-Jun-26 23:33N 41°14' W 072°10'6 5.8
2015-Jun-26 22:33N 41°09' W 072°14'9 9.5
2015-Jun-26 21:33N 41°17' W 072°07'5 4.7
2015-Jun-26 20:33N 41°21' W 072°06'9 9.0
2015-Jun-26 19:33N 41°13' W 072°11'5 4.9
2015-Jun-26 18:33N 41°09' W 072°14'9 8.7
2015-Jun-26 17:33N 41°16' W 072°07'5 5.4
2015-Jun-26 16:33N 41°21' W 072°06'8 8.0
2015-Jun-26 15:32N 41°14' W 072°09'8 2.8
2015-Jun-26 12:34N 41°21' W 072°06'8 8.3
2015-Jun-26 11:34N 41°14' W 072°10'6 5.7
2015-Jun-26 10:33N 41°09' W 072°14'0 0.0
2015-Jun-26 00:33N 41°09' W 072°14'9 8.9
2015-Jun-25 23:33N 41°16' W 072°07'5 5.2
2015-Jun-25 22:33N 41°21' W 072°06'9 8.7
2015-Jun-25 21:33N 41°13' W 072°10'5 5.3
2015-Jun-25 20:33N 41°09' W 072°14'9 8.7
2015-Jun-25 19:33N 41°16' W 072°07'5 5.4
2015-Jun-25 18:33N 41°21' W 072°06'9 8.8
2015-Jun-25 17:33N 41°13' W 072°10'5 5.2
2015-Jun-25 16:34N 41°09' W 072°14'8 8.2
2015-Jun-25 15:33N 41°16' W 072°08'6 5.9
2015-Jun-25 14:33N 41°21' W 072°06'8 8.0
2015-Jun-25 13:34N 41°14' W 072°09'5 3.2
2015-Jun-25 12:06N 41°11' W 072°14'712.9
2015-Jun-25 11:33N 41°16' W 072°07'6 5.6
2015-Jun-25 10:33N 41°21' W 072°06'0 0.0
2015-Jun-25 00:20N 41°21' W 072°06'810.2
2015-Jun-24 23:33N 41°14' W 072°09'6 6.1
2015-Jun-24 22:33N 41°09' W 072°14'8 7.8
2015-Jun-24 21:33N 41°15' W 072°08'6 6.2
2015-Jun-24 20:33N 41°21' W 072°06'9 8.6
2015-Jun-24 19:33N 41°13' W 072°10'5 5.3
2015-Jun-24 18:33N 41°09' W 072°14'8 8.5
2015-Jun-24 17:34N 41°16' W 072°07'6 5.6
2015-Jun-24 16:34N 41°21' W 072°06'9 8.8
2015-Jun-24 15:33N 41°13' W 072°10'5 5.1
2015-Jun-24 14:33N 41°09' W 072°14'8 8.0
2015-Jun-24 13:33N 41°15' W 072°08'6 6.2
2015-Jun-24 12:33N 41°21' W 072°06'9 9.1
2015-Jun-24 11:33N 41°13' W 072°10'5 4.8
2015-Jun-24 10:33N 41°09' W 072°14'0 0.0
2015-Jun-24 01:27N 41°09' W 072°14'0 0.0
2015-Jun-24 00:33N 41°09' W 072°14'9 8.6
2015-Jun-23 23:33N 41°16' W 072°07'6 5.6
2015-Jun-23 22:33N 41°21' W 072°06'9 8.5
2015-Jun-23 21:33N 41°13' W 072°09'6 5.6
2015-Jun-23 20:33N 41°09' W 072°14'9 8.5
2015-Jun-23 19:33N 41°16' W 072°08'511.7
2015-Jun-23 19:06N 41°21' W 072°05'10 0.4
2015-Jun-22 19:34N 41°12' W 072°12'4 3.7
2015-Jun-22 18:33N 41°09' W 072°14'1111.5
2015-Jun-22 17:33N 41°18' W 072°05'3 2.9
2015-Jun-22 16:33N 41°21' W 072°05'1110.8
2015-Jun-22 15:33N 41°12' W 072°12'3 3.1
2015-Jun-22 14:33N 41°09' W 072°14'1010.4
2015-Jun-22 13:33N 41°17' W 072°06'  
Track history (hours):
 
Tides and Currents Weather Stations Pressure Air Temp Water Temp Dewpoint Dewpoint Depression Visibility Wind Speed Wind Dir Waves Ship Positions

John H.

Owner: CROSS SOUND FERRY SERVICE INC, NEW LOUDON, CT. More information available from US FCC via Universal Licensing System and Coast Guard Vessel Documentation Center.

Last reported at 2015-Jul-02 11:33 UTC. Time now 2015-Jul-02 12:28 UTC.
Position N 41°14' W 072°09'.

Length 70 m.

Type: Passenger vessel. MMSI: 366934890.

Date/timePositionNaut miles runAvg speedWind from/ knotsBaromVisibWave heightAir tempDewpointWater temp
2015-Jul-02 11:33N 41°14' W 072°09'6 5.8
2015-Jul-02 10:33N 41°09' W 072°14'0 0.0
2015-Jul-02 00:33N 41°09' W 072°14'1010.3
2015-Jul-01 23:33N 41°17' W 072°06'4 4.1
2015-Jul-01 22:33N 41°21' W 072°06'9 9.0
2015-Jul-01 21:33N 41°13' W 072°10'5 5.0
2015-Jul-01 20:33N 41°09' W 072°14'9 8.9
2015-Jul-01 19:34N 41°16' W 072°07'5 5.2
2015-Jul-01 18:33N 41°21' W 072°06'9 9.0
2015-Jul-01 17:33N 41°13' W 072°10'5 5.0
2015-Jul-01 16:33N 41°09' W 072°14'1110.5
2015-Jul-01 15:33N 41°17' W 072°05'4 4.1
2015-Jul-01 14:33N 41°21' W 072°06'9 9.5
2015-Jul-01 13:33N 41°13' W 072°11'4 4.4
2015-Jul-01 12:33N 41°09' W 072°14'9 9.2
2015-Jul-01 11:33N 41°17' W 072°07'5 4.8
2015-Jul-01 10:32N 41°21' W 072°06'0 0.0
2015-Jul-01 00:32N 41°21' W 072°06'9 9.6
2015-Jun-30 23:33N 41°13' W 072°11'5 4.6
2015-Jun-30 22:33N 41°09' W 072°14'9 9.4
2015-Jun-30 21:34N 41°17' W 072°07'5 4.8
2015-Jun-30 20:33N 41°21' W 072°06'9 8.5
2015-Jun-30 19:34N 41°14' W 072°10'5 5.4
2015-Jun-30 18:33N 41°09' W 072°14'9 8.7
2015-Jun-30 17:33N 41°16' W 072°07'5 5.4
2015-Jun-30 16:33N 41°21' W 072°06'12 9.7
2015-Jun-30 15:21N 41°11' W 072°13'2 2.7
2015-Jun-30 14:33N 41°09' W 072°14'8 7.8
2015-Jun-30 13:33N 41°16' W 072°08'6 6.2
2015-Jun-30 12:33N 41°21' W 072°06'1010.3
2015-Jun-30 11:34N 41°12' W 072°12'4 3.5
2015-Jun-30 10:33N 41°09' W 072°14'0 0.0
2015-Jun-30 00:33N 41°09' W 072°14'9 9.4
2015-Jun-29 23:34N 41°16' W 072°07'5 4.9
2015-Jun-29 22:33N 41°21' W 072°06'9 9.1
2015-Jun-29 21:33N 41°13' W 072°10'5 4.8
2015-Jun-29 20:33N 41°09' W 072°14'9 8.5
2015-Jun-29 19:33N 41°16' W 072°08'6 5.5
2015-Jun-29 18:33N 41°21' W 072°06'1010.1
2015-Jun-29 17:34N 41°12' W 072°11'4 3.8
2015-Jun-29 16:33N 41°09' W 072°14'10 9.6
2015-Jun-29 15:33N 41°17' W 072°06'5 4.7
2015-Jun-29 14:33N 41°21' W 072°06'10 9.5
2015-Jun-29 13:34N 41°13' W 072°11'4 4.4
2015-Jun-29 12:33N 41°09' W 072°14'10 9.6
2015-Jun-29 11:33N 41°17' W 072°06'5 4.8
2015-Jun-29 10:33N 41°21' W 072°06'0 0.0
2015-Jun-29 02:25N 41°21' W 072°06'8 9.7
2015-Jun-29 01:33N 41°14' W 072°09'6 5.7
2015-Jun-29 00:33N 41°09' W 072°14'9 9.4
2015-Jun-28 23:33N 41°17' W 072°06'5 4.9
2015-Jun-28 22:33N 41°21' W 072°06'9 9.4
2015-Jun-28 21:33N 41°13' W 072°11'5 4.6
2015-Jun-28 20:33N 41°09' W 072°14'9 9.0
2015-Jun-28 19:33N 41°16' W 072°07'5 5.2
2015-Jun-28 18:33N 41°21' W 072°06'9 9.5
2015-Jun-28 17:34N 41°13' W 072°11'4 4.4
2015-Jun-28 16:33N 41°09' W 072°14'9 8.6
2015-Jun-28 15:34N 41°16' W 072°07'6 5.5
2015-Jun-28 14:33N 41°21' W 072°06'8 8.3
2015-Jun-28 13:34N 41°14' W 072°09'6 5.7
2015-Jun-28 12:33N 41°09' W 072°14'9 9.0
2015-Jun-28 11:33N 41°16' W 072°06'5 5.4
2015-Jun-28 10:33N 41°21' W 072°06'0 0.0
2015-Jun-28 00:23N 41°21' W 072°06'810.0
2015-Jun-27 23:33N 41°14' W 072°10'6 5.6
2015-Jun-27 22:33N 41°09' W 072°14'8 8.5
2015-Jun-27 21:34N 41°16' W 072°08'6 5.5
2015-Jun-27 20:34N 41°21' W 072°06'8 8.4
2015-Jun-27 19:33N 41°14' W 072°10'6 5.5
2015-Jun-27 18:33N 41°09' W 072°14'9 9.2
2015-Jun-27 17:33N 41°16' W 072°07'5 5.0
2015-Jun-27 16:33N 41°21' W 072°06'9 8.6
2015-Jun-27 15:33N 41°13' W 072°09'6 5.5
2015-Jun-27 14:33N 41°09' W 072°14'8 8.2
2015-Jun-27 13:33N 41°16' W 072°08'6 5.9
2015-Jun-27 12:34N 41°21' W 072°06'8 8.4
2015-Jun-27 11:33N 41°14' W 072°10'6 5.6
2015-Jun-27 10:33N 41°09' W 072°14'0 0.0
2015-Jun-27 02:23N 41°09' W 072°14'6 6.8
2015-Jun-27 01:34N 41°14' W 072°10'8 8.3
2015-Jun-27 00:34N 41°21' W 072°06'8 8.1
2015-Jun-26 23:33N 41°14' W 072°10'6 5.8
2015-Jun-26 22:33N 41°09' W 072°14'9 9.5
2015-Jun-26 21:33N 41°17' W 072°07'5 4.7
2015-Jun-26 20:33N 41°21' W 072°06'9 9.0
2015-Jun-26 19:33N 41°13' W 072°11'5 4.9
2015-Jun-26 18:33N 41°09' W 072°14'9 8.7
2015-Jun-26 17:33N 41°16' W 072°07'5 5.4
2015-Jun-26 16:33N 41°21' W 072°06'8 8.0
2015-Jun-26 15:32N 41°14' W 072°09'8 2.8
2015-Jun-26 12:34N 41°21' W 072°06'8 8.3
2015-Jun-26 11:34N 41°14' W 072°10'6 5.7
2015-Jun-26 10:33N 41°09' W 072°14'0 0.0
2015-Jun-26 00:33N 41°09' W 072°14'9 8.9
2015-Jun-25 23:33N 41°16' W 072°07'5 5.2
2015-Jun-25 22:33N 41°21' W 072°06'9 8.7
2015-Jun-25 21:33N 41°13' W 072°10'5 5.3
2015-Jun-25 20:33N 41°09' W 072°14'9 8.7
2015-Jun-25 19:33N 41°16' W 072°07'5 5.4
2015-Jun-25 18:33N 41°21' W 072°06'9 8.8
2015-Jun-25 17:33N 41°13' W 072°10'5 5.2
2015-Jun-25 16:34N 41°09' W 072°14'8 8.2
2015-Jun-25 15:33N 41°16' W 072°08'6 5.9
2015-Jun-25 14:33N 41°21' W 072°06'8 8.0
2015-Jun-25 13:34N 41°14' W 072°09'5 3.2
2015-Jun-25 12:06N 41°11' W 072°14'712.9
2015-Jun-25 11:33N 41°16' W 072°07'6 5.6
2015-Jun-25 10:33N 41°21' W 072°06'0 0.0
2015-Jun-25 00:20N 41°21' W 072°06'810.2
2015-Jun-24 23:33N 41°14' W 072°09'6 6.1
2015-Jun-24 22:33N 41°09' W 072°14'8 7.8
2015-Jun-24 21:33N 41°15' W 072°08'6 6.2
2015-Jun-24 20:33N 41°21' W 072°06'9 8.6
2015-Jun-24 19:33N 41°13' W 072°10'5 5.3
2015-Jun-24 18:33N 41°09' W 072°14'8 8.5
2015-Jun-24 17:34N 41°16' W 072°07'6 5.6
2015-Jun-24 16:34N 41°21' W 072°06'9 8.8
2015-Jun-24 15:33N 41°13' W 072°10'5 5.1
2015-Jun-24 14:33N 41°09' W 072°14'8 8.0
2015-Jun-24 13:33N 41°15' W 072°08'6 6.2
2015-Jun-24 12:33N 41°21' W 072°06'9 9.1
2015-Jun-24 11:33N 41°13' W 072°10'5 4.8
2015-Jun-24 10:33N 41°09' W 072°14'0 0.0
2015-Jun-24 01:27N 41°09' W 072°14'0 0.0
2015-Jun-24 00:33N 41°09' W 072°14'9 8.6
2015-Jun-23 23:33N 41°16' W 072°07'6 5.6
2015-Jun-23 22:33N 41°21' W 072°06'9 8.5
2015-Jun-23 21:33N 41°13' W 072°09'6 5.6
2015-Jun-23 20:33N 41°09' W 072°14'9 8.5
2015-Jun-23 19:33N 41°16' W 072°08'511.7
2015-Jun-23 19:06N 41°21' W 072°05'10 0.4
2015-Jun-22 19:34N 41°12' W 072°12'4 3.7
2015-Jun-22 18:33N 41°09' W 072°14'1111.5
2015-Jun-22 17:33N 41°18' W 072°05'3 2.9
2015-Jun-22 16:33N 41°21' W 072°05'1110.8
2015-Jun-22 15:33N 41°12' W 072°12'3 3.1
2015-Jun-22 14:33N 41°09' W 072°14'1010.4
2015-Jun-22 13:33N 41°17' W 072°06'  

Dump ship's entire track history